createdAt,value
2022-11-08T00:00:48.472Z,13.73
2022-11-08T00:03:17.096Z,14.05
2022-11-08T00:06:02.888Z,13.85
2022-11-08T00:08:48.911Z,14.52
2022-11-08T00:11:34.922Z,13.80
2022-11-08T00:14:05.019Z,15.65
2022-11-08T00:16:33.594Z,13.95
2022-11-08T00:19:02.042Z,15.45
2022-11-08T00:21:30.628Z,13.15
2022-11-08T00:23:59.049Z,15.45
2022-11-08T00:26:28.370Z,13.52
2022-11-08T00:28:56.841Z,13.13
2022-11-08T00:31:26.610Z,13.93
2022-11-08T00:33:55.759Z,13.98
2022-11-08T00:36:24.296Z,14.68
2022-11-08T00:38:52.839Z,14.07
2022-11-08T00:41:23.576Z,14.20
2022-11-08T00:43:52.258Z,14.68
2022-11-08T00:46:20.806Z,13.70
2022-11-08T00:48:50.687Z,14.13
2022-11-08T00:51:19.161Z,13.50
2022-11-08T00:53:47.565Z,14.20
2022-11-08T00:56:16.393Z,14.05
2022-11-08T01:03:42.599Z,13.55
2022-11-08T01:06:15.442Z,14.63
2022-11-08T01:08:44.171Z,14.75
2022-11-08T01:11:15.131Z,15.27
2022-11-08T01:13:43.952Z,15.43
2022-11-08T01:18:42.510Z,14.93
2022-11-08T01:21:14.085Z,14.75
2022-11-08T01:23:43.945Z,15.48
2022-11-08T01:26:15.006Z,14.63
2022-11-08T01:28:43.662Z,15.10
2022-11-08T01:31:14.130Z,14.85
2022-11-08T01:33:47.143Z,14.60
2022-11-08T01:36:23.112Z,14.70
2022-11-08T01:38:51.980Z,15.73
2022-11-08T01:43:50.279Z,15.55
2022-11-08T01:46:37.893Z,15.35
2022-11-08T01:49:29.720Z,15.03
2022-11-08T01:52:07.346Z,14.63
2022-11-08T01:54:41.033Z,14.18
2022-11-08T01:57:14.513Z,14.85
2022-11-08T01:59:45.888Z,14.70
2022-11-08T02:02:15.045Z,14.18
2022-11-08T02:04:44.623Z,14.07
2022-11-08T02:07:15.287Z,15.15
2022-11-08T02:09:46.409Z,12.93
2022-11-08T02:12:17.050Z,14.10
2022-11-08T02:14:45.664Z,13.40
2022-11-08T02:17:14.623Z,14.23
2022-11-08T02:19:46.016Z,12.73
2022-11-08T02:22:22.679Z,15.43
2022-11-08T02:24:53.466Z,15.63
2022-11-08T02:27:22.103Z,13.63
2022-11-08T02:29:54.141Z,14.05
2022-11-08T02:32:23.129Z,14.60
2022-11-08T02:34:55.995Z,14.27
2022-11-08T02:37:26.831Z,13.90
2022-11-08T02:39:56.709Z,14.68
2022-11-08T02:42:25.321Z,15.13
2022-11-08T02:44:53.933Z,15.00
2022-11-08T02:47:22.355Z,13.55
2022-11-08T02:49:50.979Z,17.27
2022-11-08T02:52:19.403Z,14.90
2022-11-08T02:54:48.489Z,15.63
2022-11-08T02:57:18.343Z,15.20
2022-11-08T02:59:46.846Z,17.45
2022-11-08T03:02:15.448Z,14.80
2022-11-08T03:04:44.051Z,15.68
2022-11-08T03:07:12.479Z,14.73
2022-11-08T03:09:40.912Z,14.18
2022-11-08T03:12:09.501Z,14.05
2022-11-08T03:14:39.363Z,16.05
2022-11-08T03:17:07.886Z,14.80
2022-11-08T03:19:36.352Z,14.60
2022-11-08T03:22:04.824Z,15.45
2022-11-08T03:24:33.967Z,14.35
2022-11-08T03:27:02.477Z,15.13
2022-11-08T03:29:30.928Z,13.55
2022-11-08T03:32:03.815Z,14.80
2022-11-08T03:34:32.350Z,14.85
2022-11-08T03:37:00.820Z,16.10
2022-11-08T03:39:29.374Z,14.95
2022-11-08T03:41:59.767Z,15.13
2022-11-08T03:44:28.341Z,15.63
2022-11-08T03:46:56.938Z,14.80
2022-11-08T03:49:26.979Z,15.70
2022-11-08T03:51:55.689Z,14.20
2022-11-08T03:54:24.116Z,14.57
2022-11-08T03:56:52.622Z,14.25
2022-11-08T03:59:21.057Z,14.95
2022-11-08T04:01:49.754Z,15.98
2022-11-08T04:04:18.398Z,15.82
2022-11-08T04:06:48.212Z,14.02
2022-11-08T04:09:21.289Z,13.80
2022-11-08T04:12:22.284Z,15.45
2022-11-08T04:15:08.216Z,15.52
2022-11-08T04:17:50.586Z,14.00
2022-11-08T04:20:36.637Z,14.52
2022-11-08T04:23:06.575Z,15.32
2022-11-08T04:25:35.425Z,16.08
2022-11-08T04:28:04.150Z,16.05
2022-11-08T04:30:32.896Z,15.02
2022-11-08T04:33:02.104Z,16.77
2022-11-08T04:35:33.163Z,14.13
2022-11-08T04:38:02.062Z,16.50
2022-11-08T04:43:44.208Z,14.48
2022-11-08T04:48:43.549Z,16.60
2022-11-08T04:51:14.709Z,14.48
2022-11-08T04:53:45.108Z,15.85
2022-11-08T04:56:20.995Z,14.00
2022-11-08T04:58:52.118Z,15.48
2022-11-08T05:01:38.701Z,14.48
2022-11-08T05:06:05.928Z,14.10
2022-11-08T05:08:36.769Z,15.18
2022-11-08T05:11:10.175Z,14.52
2022-11-08T05:13:40.831Z,16.45
2022-11-08T05:17:19.420Z,15.40
2022-11-08T05:20:35.566Z,13.57
2022-11-08T05:23:21.734Z,16.13
2022-11-08T05:25:51.048Z,14.20
2022-11-08T05:29:22.406Z,15.90
2022-11-08T05:31:54.887Z,14.45
2022-11-08T05:34:23.424Z,15.23
2022-11-08T05:36:51.920Z,16.85
2022-11-08T05:39:20.688Z,16.92
2022-11-08T05:41:49.149Z,16.10
2022-11-08T05:44:17.724Z,14.68
2022-11-08T05:46:46.189Z,16.80
2022-11-08T05:49:16.147Z,15.45
2022-11-08T05:51:44.901Z,14.32
2022-11-08T05:54:13.396Z,14.77
2022-11-08T05:56:42.197Z,16.35
2022-11-08T06:01:39.759Z,15.35
2022-11-08T06:04:11.097Z,15.73
2022-11-08T06:06:41.269Z,16.55
2022-11-08T06:09:11.937Z,14.32
2022-11-08T06:11:40.504Z,17.45
2022-11-08T06:14:20.245Z,16.42
2022-11-08T06:16:57.805Z,17.33
2022-11-08T06:19:26.672Z,16.40
2022-11-08T06:21:56.742Z,16.25
2022-11-08T06:24:31.490Z,15.45
2022-11-08T06:27:00.464Z,16.40
2022-11-08T06:29:40.755Z,15.95
2022-11-08T06:32:09.543Z,16.20
2022-11-08T06:34:38.428Z,17.10
2022-11-08T06:37:08.658Z,17.77
2022-11-08T06:39:37.103Z,17.13
2022-11-08T06:42:05.895Z,17.95
2022-11-08T06:47:02.620Z,18.17
2022-11-08T06:49:31.008Z,17.05
2022-11-08T06:51:59.611Z,17.20
2022-11-08T06:54:29.413Z,17.30
2022-11-08T06:57:02.919Z,18.13
2022-11-08T06:59:31.583Z,18.17
2022-11-08T07:02:00.207Z,17.40
2022-11-08T07:04:28.863Z,17.20
2022-11-08T07:07:00.308Z,17.05
2022-11-08T07:09:30.540Z,18.73
2022-11-08T07:11:59.550Z,18.13
2022-11-08T07:16:56.295Z,18.63
2022-11-08T07:19:24.910Z,19.48
2022-11-08T07:21:53.501Z,20.27
2022-11-08T07:24:21.983Z,21.55
2022-11-08T07:26:52.005Z,21.17
2022-11-08T07:29:22.585Z,21.83
2022-11-08T07:31:51.260Z,20.25
2022-11-08T07:34:20.058Z,21.08
2022-11-08T07:36:53.901Z,19.77
2022-11-08T07:40:09.204Z,20.67
2022-11-08T07:43:10.177Z,19.17
2022-11-08T07:45:52.563Z,18.48
2022-11-08T07:48:42.043Z,18.17
2022-11-08T07:51:21.812Z,17.17
2022-11-08T07:53:50.829Z,16.50
2022-11-08T07:56:21.602Z,17.88
2022-11-08T07:58:53.536Z,16.20
2022-11-08T08:01:22.720Z,17.30
2022-11-08T08:03:51.678Z,16.83
2022-11-08T08:06:30.884Z,17.10
2022-11-08T08:08:59.695Z,19.42
2022-11-08T08:11:32.512Z,18.30
2022-11-08T08:14:04.280Z,19.02
2022-11-08T08:16:35.337Z,19.17
2022-11-08T08:19:16.872Z,18.95
2022-11-08T08:21:46.014Z,20.67
2022-11-08T08:24:16.554Z,19.65
2022-11-08T08:29:14.824Z,20.02
2022-11-08T08:31:43.508Z,21.60
2022-11-08T08:34:19.903Z,20.45
2022-11-08T08:37:49.042Z,20.60
2022-11-08T08:40:17.913Z,20.35
2022-11-08T08:45:42.123Z,20.95
2022-11-08T08:48:13.729Z,19.90
2022-11-08T08:50:43.645Z,21.60
2022-11-08T08:53:12.328Z,22.63
2022-11-08T08:55:41.902Z,22.20
2022-11-08T08:58:12.982Z,23.15
2022-11-08T09:03:35.557Z,19.17
2022-11-08T09:06:11.563Z,20.42
2022-11-08T09:12:04.554Z,18.35
2022-11-08T09:15:00.521Z,17.98
2022-11-08T09:17:44.944Z,15.80
2022-11-08T09:20:19.377Z,15.70
2022-11-08T09:22:53.018Z,14.80
2022-11-08T09:25:36.639Z,15.50
2022-11-08T09:31:06.277Z,15.10
2022-11-08T09:33:54.044Z,15.07
2022-11-08T09:36:34.568Z,13.35
2022-11-08T09:39:05.413Z,13.55
2022-11-08T09:42:12.310Z,12.15
2022-11-08T09:45:15.341Z,13.27
2022-11-08T09:48:07.923Z,13.30
2022-11-08T09:50:56.904Z,12.80
2022-11-08T09:53:35.457Z,14.57
2022-11-08T09:59:08.788Z,13.57
2022-11-08T10:01:43.631Z,14.32
2022-11-08T10:04:35.481Z,14.43
2022-11-08T10:07:35.484Z,15.35
2022-11-08T10:11:04.403Z,16.67
2022-11-08T10:21:45.383Z,16.38
2022-11-08T10:28:47.697Z,18.88
2022-11-08T10:31:17.593Z,18.50
2022-11-08T10:33:51.924Z,18.10
2022-11-08T10:36:30.569Z,18.65
2022-11-08T10:39:05.145Z,17.65
2022-11-08T10:41:43.107Z,18.95
2022-11-08T10:44:16.822Z,17.20
2022-11-08T10:46:47.339Z,18.75
2022-11-08T10:49:20.398Z,17.48
2022-11-08T10:51:54.364Z,18.23
2022-11-08T10:54:46.174Z,18.73
2022-11-08T10:57:27.575Z,18.08
2022-11-08T10:59:58.259Z,16.38
2022-11-08T11:02:33.216Z,15.73
2022-11-08T11:05:27.657Z,15.70
2022-11-08T11:08:02.996Z,14.65
2022-11-08T11:10:33.542Z,16.40
2022-11-08T11:13:07.976Z,14.77
2022-11-08T11:15:48.862Z,14.65
2022-11-08T11:18:26.329Z,13.02
2022-11-08T11:21:08.612Z,14.23
2022-11-08T11:23:42.635Z,14.70
2022-11-08T11:26:21.008Z,12.90
2022-11-08T11:29:19.219Z,12.00
2022-11-08T11:31:51.964Z,12.65
2022-11-08T11:34:39.341Z,12.57
2022-11-08T11:37:24.918Z,11.07
2022-11-08T11:40:02.517Z,11.45
2022-11-08T11:45:32.913Z,11.25
2022-11-08T11:48:09.186Z,11.18
2022-11-08T11:50:40.210Z,12.95
2022-11-08T11:53:19.343Z,13.23
2022-11-08T11:56:13.213Z,13.65
2022-11-08T11:59:24.961Z,14.02
2022-11-08T12:02:25.238Z,12.35
2022-11-08T12:05:09.601Z,14.82
2022-11-08T12:07:50.435Z,15.13
2022-11-08T12:10:58.825Z,13.50
2022-11-08T12:13:37.151Z,14.93
2022-11-08T12:16:12.172Z,14.38
2022-11-08T12:19:20.937Z,14.80
2022-11-08T12:21:58.976Z,14.45
2022-11-08T12:24:47.765Z,14.85
2022-11-08T12:30:03.422Z,14.90
2022-11-08T12:32:51.426Z,14.18
2022-11-08T12:35:35.806Z,13.68
2022-11-08T12:38:16.164Z,12.98
2022-11-08T12:40:50.666Z,12.80
2022-11-08T12:43:37.342Z,13.38
2022-11-08T12:46:13.124Z,12.55
2022-11-08T12:49:20.263Z,12.18
2022-11-08T12:52:09.476Z,11.57
2022-11-08T12:54:43.385Z,12.70
2022-11-08T12:57:18.197Z,10.73
2022-11-08T12:59:53.858Z,10.27
2022-11-08T13:02:27.616Z,9.95
2022-11-08T13:05:01.267Z,7.97
2022-11-08T13:07:50.029Z,9.32
2022-11-08T13:10:40.325Z,9.75
2022-11-08T13:13:22.271Z,7.53
2022-11-08T13:16:17.329Z,7.53
2022-11-08T13:18:48.685Z,6.43
2022-11-08T13:21:38.504Z,6.15
2022-11-08T13:24:44.392Z,5.90
2022-11-08T13:27:41.442Z,6.20
2022-11-08T13:30:38.363Z,5.28
2022-11-08T13:33:16.426Z,5.28
2022-11-08T13:35:56.056Z,5.35
2022-11-08T13:38:34.922Z,5.35
2022-11-08T13:41:18.075Z,4.93
2022-11-08T13:43:48.857Z,5.53
2022-11-08T13:46:49.576Z,5.72
2022-11-08T13:49:25.169Z,4.50
2022-11-08T13:52:58.245Z,4.90
2022-11-08T13:56:00.710Z,4.97
2022-11-08T13:58:37.684Z,4.63
2022-11-08T14:01:11.774Z,4.72
2022-11-08T14:04:00.098Z,4.50
2022-11-08T14:06:39.934Z,5.57
2022-11-08T14:09:22.759Z,5.28
2022-11-08T14:12:01.078Z,5.93
2022-11-08T14:14:47.222Z,5.43
2022-11-08T14:17:35.596Z,5.82
2022-11-08T14:20:27.304Z,5.50
2022-11-08T14:22:57.308Z,4.60
2022-11-08T14:25:36.799Z,4.30
2022-11-08T14:28:23.211Z,4.20
2022-11-08T14:30:56.058Z,4.82
2022-11-08T14:33:32.031Z,4.07
2022-11-08T14:36:17.904Z,4.40
2022-11-08T14:39:09.464Z,4.30
2022-11-08T14:41:45.214Z,4.03
2022-11-08T14:44:37.621Z,4.10
2022-11-08T14:47:41.959Z,4.35
2022-11-08T14:50:18.911Z,4.05
2022-11-08T14:52:53.767Z,4.22
2022-11-08T14:55:25.643Z,4.63
2022-11-08T14:57:54.393Z,4.20
2022-11-08T15:00:27.077Z,4.57
2022-11-08T15:03:00.656Z,4.45
2022-11-08T15:05:39.811Z,5.35
2022-11-08T15:08:27.526Z,6.40
2022-11-08T15:10:58.689Z,6.43
2022-11-08T15:13:32.691Z,7.10
2022-11-08T15:16:08.636Z,7.43
2022-11-08T15:18:43.279Z,9.00
2022-11-08T15:21:27.789Z,9.35
2022-11-08T15:24:06.735Z,8.00
2022-11-08T15:26:37.144Z,9.63
2022-11-08T15:29:09.536Z,10.23
2022-11-08T15:31:42.473Z,8.95
2022-11-08T15:34:23.999Z,8.35
2022-11-08T15:36:53.508Z,7.85
2022-11-08T15:39:25.445Z,8.45
2022-11-08T15:42:03.108Z,9.35
2022-11-08T15:44:32.335Z,8.73
2022-11-08T15:47:01.657Z,8.73
2022-11-08T15:49:35.148Z,8.75
2022-11-08T15:52:04.507Z,8.50
2022-11-08T15:54:33.318Z,8.85
2022-11-08T15:59:33.876Z,7.82
2022-11-08T16:02:04.278Z,8.00
2022-11-08T16:04:34.481Z,8.57
2022-11-08T16:07:05.458Z,9.13
2022-11-08T16:09:34.664Z,9.80
2022-11-08T16:12:11.543Z,9.52
2022-11-08T16:14:42.115Z,10.20
2022-11-08T16:17:14.734Z,10.05
2022-11-08T16:19:44.855Z,9.57
2022-11-08T16:22:19.203Z,8.32
2022-11-08T16:24:48.347Z,7.80
2022-11-08T16:29:50.641Z,7.13
2022-11-08T16:32:24.547Z,6.93
2022-11-08T16:34:57.645Z,6.68
2022-11-08T16:37:28.200Z,6.70
2022-11-08T16:39:57.195Z,6.07
2022-11-08T16:44:54.501Z,5.95
2022-11-08T16:49:51.713Z,6.25
2022-11-08T16:54:50.476Z,5.95
2022-11-08T17:00:04.459Z,6.28
2022-11-08T17:02:35.635Z,5.97
2022-11-08T17:05:04.397Z,5.63
2022-11-08T17:07:35.850Z,6.22
2022-11-08T17:10:04.824Z,6.28
2022-11-08T17:15:01.857Z,5.10
2022-11-08T17:17:32.248Z,5.57
2022-11-08T17:20:00.814Z,5.85
2022-11-08T17:22:29.710Z,6.30
2022-11-08T17:24:59.728Z,5.95
2022-11-08T17:27:28.286Z,5.90
2022-11-08T17:29:56.983Z,6.43
2022-11-08T17:34:55.292Z,6.55
2022-11-08T17:37:24.908Z,6.22
2022-11-08T17:39:55.584Z,5.55
2022-11-08T17:42:37.192Z,6.10
2022-11-08T17:45:32.852Z,5.55
2022-11-08T17:50:49.258Z,6.50
2022-11-08T17:53:20.795Z,6.68
2022-11-08T17:55:57.293Z,6.70
2022-11-08T17:58:32.624Z,5.78
2022-11-08T18:01:03.210Z,6.45
2022-11-08T18:03:32.230Z,6.10
2022-11-08T18:06:02.790Z,7.13
2022-11-08T18:08:33.822Z,6.32
2022-11-08T18:11:02.972Z,7.25
2022-11-08T18:13:38.355Z,6.35
2022-11-08T18:16:08.496Z,6.75
2022-11-08T18:18:37.785Z,6.82
2022-11-08T18:21:07.001Z,6.47
2022-11-08T18:23:35.899Z,6.65
2022-11-08T18:28:32.773Z,7.10
2022-11-08T18:31:08.121Z,6.60
2022-11-08T18:33:38.331Z,7.15
2022-11-08T18:36:08.159Z,5.93
2022-11-08T18:38:39.286Z,6.93
2022-11-08T18:41:08.706Z,7.43
2022-11-08T18:43:37.803Z,7.90
2022-11-08T18:46:14.583Z,7.40
2022-11-08T18:48:46.713Z,7.55
2022-11-08T18:51:19.769Z,6.63
2022-11-08T18:53:48.557Z,8.00
2022-11-08T18:56:19.712Z,7.60
2022-11-08T18:58:51.072Z,7.25
2022-11-08T19:01:33.715Z,7.68
2022-11-08T19:04:02.540Z,7.47
2022-11-08T19:06:33.789Z,7.35
2022-11-08T19:09:02.383Z,7.28
2022-11-08T19:11:31.041Z,7.22
2022-11-08T19:16:33.874Z,8.70
2022-11-08T19:19:03.840Z,8.50
2022-11-08T19:21:34.607Z,8.60
2022-11-08T19:24:10.917Z,9.05
2022-11-08T19:26:40.007Z,8.82
2022-11-08T19:29:10.726Z,8.35
2022-11-08T19:31:42.801Z,8.88
2022-11-08T19:34:11.602Z,7.90
2022-11-08T19:36:43.539Z,8.68
2022-11-08T19:39:12.871Z,9.50
2022-11-08T19:41:41.838Z,8.93
2022-11-08T19:44:11.596Z,8.88
2022-11-08T19:46:41.944Z,9.77
2022-11-08T19:49:11.340Z,9.80
2022-11-08T19:51:40.702Z,9.45
2022-11-08T19:54:11.946Z,8.85
2022-11-08T19:59:30.770Z,9.27
2022-11-08T20:02:00.842Z,10.02
2022-11-08T20:04:29.633Z,9.13
2022-11-08T20:06:58.526Z,9.63
2022-11-08T20:11:59.707Z,10.35
2022-11-08T20:14:31.062Z,10.13
2022-11-08T20:19:53.240Z,10.07
2022-11-08T20:22:21.879Z,10.27
2022-11-08T20:24:50.556Z,11.68
2022-11-08T20:27:19.270Z,11.48
2022-11-08T20:29:47.826Z,11.05
2022-11-08T20:32:17.730Z,10.48
2022-11-08T20:34:46.301Z,10.40
2022-11-08T20:37:14.924Z,10.40
2022-11-08T20:39:43.632Z,10.38
2022-11-08T20:44:40.630Z,10.98
2022-11-08T20:47:09.330Z,11.70
2022-11-08T20:49:39.439Z,11.38
2022-11-08T20:52:08.120Z,10.48
2022-11-08T20:54:41.195Z,11.30
2022-11-08T20:57:12.591Z,11.45
2022-11-08T21:02:11.609Z,11.65
2022-11-08T21:04:41.817Z,10.30
2022-11-08T21:10:20.037Z,12.02
2022-11-08T21:12:47.756Z,11.05
2022-11-08T21:15:16.360Z,11.65
2022-11-08T21:17:44.880Z,11.65
2022-11-08T21:20:15.025Z,11.32
2022-11-08T21:22:43.645Z,12.18
2022-11-08T21:25:12.175Z,12.45
2022-11-08T21:27:43.075Z,13.13
2022-11-08T21:30:15.586Z,12.27
2022-11-08T21:32:44.174Z,11.95
2022-11-08T21:35:12.693Z,11.85
2022-11-08T21:37:42.986Z,13.07
2022-11-08T21:40:12.443Z,12.98
2022-11-08T21:42:44.743Z,11.93
2022-11-08T21:45:16.170Z,12.68
2022-11-08T21:47:44.666Z,12.52
2022-11-08T21:50:13.302Z,13.30
2022-11-08T21:52:43.220Z,13.77
2022-11-08T21:55:12.880Z,12.88
2022-11-08T21:57:41.909Z,12.55
2022-11-08T22:00:12.223Z,13.25
2022-11-08T22:02:42.045Z,12.10
2022-11-08T22:05:11.230Z,13.88
2022-11-08T22:07:39.676Z,13.15
2022-11-08T22:10:11.836Z,11.75
2022-11-08T22:12:40.612Z,12.43
2022-11-08T22:15:11.094Z,13.80
2022-11-08T22:17:46.011Z,12.80
2022-11-08T22:20:27.994Z,12.68
2022-11-08T22:22:56.552Z,14.45
2022-11-08T22:25:26.604Z,12.52
2022-11-08T22:27:55.272Z,13.77
2022-11-08T22:30:23.910Z,13.45
2022-11-08T22:32:55.304Z,13.20
2022-11-08T22:35:23.873Z,14.27
2022-11-08T22:37:52.382Z,12.45
2022-11-08T22:40:21.114Z,13.07
2022-11-08T22:45:19.145Z,13.68
2022-11-08T22:47:47.679Z,13.57
2022-11-08T22:50:16.135Z,12.20
2022-11-08T22:52:44.552Z,12.65
2022-11-08T22:55:13.070Z,12.48
2022-11-08T22:57:41.490Z,12.48
2022-11-08T23:00:15.285Z,13.43
2022-11-08T23:02:43.880Z,11.93
2022-11-08T23:05:12.233Z,13.73
2022-11-08T23:07:40.774Z,12.73
2022-11-08T23:10:09.743Z,12.15
2022-11-08T23:12:55.802Z,13.63
2022-11-08T23:15:42.101Z,12.77
2022-11-08T23:18:10.631Z,13.20
2022-11-08T23:20:56.124Z,13.88
2022-11-08T23:23:56.407Z,13.52
2022-11-08T23:26:42.316Z,12.88
2022-11-08T23:29:29.020Z,12.75
2022-11-08T23:31:59.212Z,13.75
2022-11-08T23:34:27.652Z,12.68
2022-11-08T23:36:56.037Z,13.35
2022-11-08T23:39:24.528Z,12.75
2022-11-08T23:42:10.587Z,13.30
2022-11-08T23:44:39.059Z,13.45
2022-11-08T23:47:10.707Z,12.43
2022-11-08T23:49:39.279Z,13.23
2022-11-08T23:52:07.683Z,13.20
2022-11-08T23:54:36.148Z,12.40
2022-11-08T23:57:04.546Z,13.27
2022-11-08T23:59:33.311Z,13.25
